createdAt,value
2022-12-17T00:02:37.640Z,8.52
2022-12-17T00:07:57.726Z,10.88
2022-12-17T00:13:17.847Z,7.25
2022-12-17T00:18:38.318Z,7.72
2022-12-17T00:23:58.151Z,8.40
2022-12-17T00:29:18.427Z,9.40
2022-12-17T00:34:38.281Z,6.55
2022-12-17T00:39:59.503Z,7.57
2022-12-17T00:45:19.623Z,9.10
2022-12-17T00:50:39.766Z,7.00
2022-12-17T00:56:00.808Z,8.57
2022-12-17T01:01:20.926Z,7.38
2022-12-17T01:06:41.055Z,6.22
2022-12-17T01:12:00.967Z,7.18
2022-12-17T01:17:21.109Z,6.65
2022-12-17T01:22:41.171Z,7.53
2022-12-17T01:28:01.054Z,6.10
2022-12-17T01:33:22.717Z,5.65
2022-12-17T01:38:42.765Z,8.32
2022-12-17T01:44:02.835Z,6.93
2022-12-17T01:49:23.219Z,6.70
2022-12-17T01:54:43.612Z,7.43
2022-12-17T02:00:09.676Z,8.98
2022-12-17T02:05:30.222Z,8.30
2022-12-17T02:10:56.596Z,7.72
2022-12-17T02:16:28.027Z,8.60
2022-12-17T02:21:50.855Z,7.85
2022-12-17T02:27:14.119Z,8.02
2022-12-17T02:32:36.748Z,8.73
2022-12-17T02:37:56.964Z,7.18
2022-12-17T02:43:17.832Z,7.78
2022-12-17T02:48:38.278Z,7.47
2022-12-17T02:54:03.687Z,7.70
2022-12-17T02:59:23.754Z,6.90
2022-12-17T03:04:43.690Z,5.57
2022-12-17T03:10:03.533Z,7.65
2022-12-17T03:15:23.930Z,7.47
2022-12-17T03:20:43.734Z,7.78
2022-12-17T03:26:03.965Z,8.80
2022-12-17T03:31:24.252Z,6.53
2022-12-17T03:36:44.719Z,7.88
2022-12-17T03:42:05.047Z,6.53
2022-12-17T03:47:25.161Z,6.15
2022-12-17T03:52:44.987Z,6.10
2022-12-17T03:58:04.931Z,5.78
2022-12-17T04:03:24.919Z,6.00
2022-12-17T04:08:45.257Z,6.20
2022-12-17T04:14:05.438Z,5.32
2022-12-17T04:19:25.360Z,5.55
2022-12-17T04:24:45.220Z,6.65
2022-12-17T04:30:05.003Z,7.35
2022-12-17T04:35:25.112Z,5.57
2022-12-17T04:40:45.521Z,7.57
2022-12-17T04:46:08.413Z,7.32
2022-12-17T04:51:28.481Z,5.88
2022-12-17T04:56:48.574Z,6.93
2022-12-17T05:02:08.855Z,6.93
2022-12-17T05:07:28.969Z,6.95
2022-12-17T05:12:48.955Z,6.88
2022-12-17T05:18:19.333Z,6.97
2022-12-17T05:23:39.431Z,7.68
2022-12-17T05:28:59.666Z,7.25
2022-12-17T05:34:19.533Z,7.80
2022-12-17T05:39:39.558Z,8.38
2022-12-17T05:44:59.449Z,7.53
2022-12-17T05:50:19.788Z,8.27
2022-12-17T05:55:39.688Z,9.27
2022-12-17T06:00:59.678Z,13.05
2022-12-17T06:06:19.497Z,9.88
2022-12-17T06:11:39.669Z,9.65
2022-12-17T06:16:59.742Z,10.30
2022-12-17T06:22:20.357Z,10.82
2022-12-17T06:27:40.300Z,10.73
2022-12-17T06:33:00.880Z,11.20
2022-12-17T06:38:24.032Z,9.40
2022-12-17T06:43:43.943Z,11.32
2022-12-17T06:49:03.740Z,11.90
2022-12-17T06:54:23.562Z,11.95
2022-12-17T06:59:43.632Z,10.73
2022-12-17T07:05:03.841Z,12.02
2022-12-17T07:10:24.184Z,11.63
2022-12-17T07:15:44.142Z,11.93
2022-12-17T07:21:05.001Z,13.10
2022-12-17T07:26:25.149Z,12.80
2022-12-17T07:31:44.979Z,10.57
2022-12-17T07:37:04.991Z,12.23
2022-12-17T07:42:24.834Z,11.80
2022-12-17T07:47:45.090Z,12.13
2022-12-17T07:53:05.121Z,10.80
2022-12-17T07:58:29.199Z,11.23
2022-12-17T08:03:49.065Z,10.30
2022-12-17T08:09:09.194Z,12.18
2022-12-17T08:14:29.359Z,12.02
2022-12-17T08:19:49.233Z,11.52
2022-12-17T08:25:09.099Z,11.13
2022-12-17T08:30:29.582Z,9.70
2022-12-17T08:35:49.606Z,13.55
2022-12-17T08:41:09.913Z,14.63
2022-12-17T08:46:29.724Z,11.45
2022-12-17T08:51:49.710Z,12.40
2022-12-17T08:57:09.561Z,12.90
2022-12-17T09:02:29.759Z,11.40
2022-12-17T09:07:50.041Z,10.65
2022-12-17T09:13:09.985Z,11.52
2022-12-17T09:18:29.916Z,10.95
2022-12-17T09:23:50.087Z,14.50
2022-12-17T09:29:10.248Z,11.15
2022-12-17T09:34:30.810Z,10.23
2022-12-17T09:39:50.717Z,8.95
2022-12-17T09:45:27.338Z,7.95
2022-12-17T09:50:47.722Z,9.10
2022-12-17T09:56:11.906Z,10.80
2022-12-17T10:01:54.762Z,10.55
2022-12-17T10:07:14.537Z,11.35
2022-12-17T10:23:19.658Z,10.18
2022-12-17T10:28:43.693Z,11.38
2022-12-17T10:34:05.033Z,9.20
2022-12-17T10:39:26.076Z,10.43
2022-12-17T10:44:53.317Z,8.98
2022-12-17T10:50:17.875Z,8.77
2022-12-17T10:55:46.947Z,9.95
2022-12-17T11:01:07.882Z,11.80
2022-12-17T11:06:29.400Z,11.02
2022-12-17T11:11:50.346Z,10.20
2022-12-17T11:17:13.719Z,11.98
2022-12-17T11:22:53.439Z,9.70
2022-12-17T11:28:23.932Z,10.57
2022-12-17T11:34:11.179Z,10.73
2022-12-17T11:39:39.990Z,8.95
2022-12-17T11:45:12.347Z,11.13
2022-12-17T11:50:41.877Z,11.32
2022-12-17T11:56:14.960Z,11.80
2022-12-17T12:01:55.697Z,10.25
2022-12-17T12:07:28.319Z,11.50
2022-12-17T12:13:09.104Z,10.95
2022-12-17T12:18:37.528Z,13.55
2022-12-17T12:24:17.413Z,10.68
2022-12-17T12:29:46.806Z,10.73
2022-12-17T12:35:07.630Z,12.40
2022-12-17T12:40:43.916Z,12.15
2022-12-17T12:46:14.156Z,9.82
2022-12-17T12:51:46.602Z,11.52
2022-12-17T12:57:06.593Z,10.82
2022-12-17T13:02:39.341Z,11.73
2022-12-17T13:07:40.860Z,11.20
2022-12-17T13:12:47.218Z,11.13
2022-12-17T13:18:37.129Z,10.30
2022-12-17T13:23:39.256Z,9.98
2022-12-17T13:28:41.560Z,10.85
2022-12-17T13:34:00.442Z,11.65
2022-12-17T13:39:24.948Z,12.43
2022-12-17T13:44:44.172Z,12.20
2022-12-17T13:50:24.532Z,13.40
2022-12-17T13:55:25.533Z,13.00
2022-12-17T14:00:30.788Z,15.00
2022-12-17T14:05:43.860Z,11.88
2022-12-17T14:10:51.957Z,10.40
2022-12-17T14:15:53.501Z,10.38
2022-12-17T14:20:56.317Z,10.98
2022-12-17T14:25:58.388Z,10.27
2022-12-17T14:31:26.617Z,13.95
2022-12-17T14:36:30.161Z,11.52
2022-12-17T14:41:56.957Z,15.02
2022-12-17T14:47:11.524Z,13.45
2022-12-17T14:52:14.085Z,12.80
2022-12-17T14:57:23.004Z,12.80
2022-12-17T15:02:27.667Z,16.27
2022-12-17T15:07:31.846Z,13.18
2022-12-17T15:12:33.324Z,11.95
2022-12-17T15:17:35.875Z,13.20
2022-12-17T15:22:38.355Z,14.57
2022-12-17T15:27:39.826Z,13.55
2022-12-17T15:32:41.582Z,9.23
2022-12-17T15:37:43.069Z,12.40
2022-12-17T15:43:06.289Z,16.67
2022-12-17T15:48:09.422Z,14.63
2022-12-17T15:53:11.024Z,12.55
2022-12-17T15:58:13.864Z,19.60
2022-12-17T16:03:15.325Z,14.85
2022-12-17T16:08:16.917Z,11.20
2022-12-17T16:13:18.393Z,13.93
2022-12-17T16:18:20.005Z,16.48
2022-12-17T16:23:21.822Z,10.93
2022-12-17T16:28:23.371Z,13.90
2022-12-17T16:33:24.874Z,14.52
2022-12-17T16:38:26.666Z,10.77
2022-12-17T16:43:32.625Z,13.30
2022-12-17T16:48:39.290Z,15.18
2022-12-17T16:53:41.454Z,13.57
2022-12-17T16:58:43.167Z,12.88
2022-12-17T17:03:44.872Z,14.57
2022-12-17T17:08:47.304Z,17.83
2022-12-17T17:13:50.870Z,15.80
2022-12-17T17:18:53.754Z,21.02
2022-12-17T17:24:01.902Z,15.20
2022-12-17T17:29:04.637Z,19.27
2022-12-17T17:34:10.984Z,11.65
2022-12-17T17:39:12.700Z,11.00
2022-12-17T17:44:17.668Z,12.55
2022-12-17T17:49:22.369Z,11.82
2022-12-17T17:54:24.185Z,11.88
2022-12-17T17:59:32.813Z,13.82
2022-12-17T18:04:38.769Z,17.38
2022-12-17T18:09:40.579Z,13.88
2022-12-17T18:15:05.108Z,11.57
2022-12-17T18:20:04.495Z,13.63
2022-12-17T18:25:06.389Z,18.25
2022-12-17T18:30:08.557Z,15.35
2022-12-17T18:35:10.336Z,24.35
2022-12-17T18:40:12.191Z,12.23
2022-12-17T18:45:14.744Z,15.68
2022-12-17T18:50:16.304Z,12.52
2022-12-17T18:55:18.142Z,10.90
2022-12-17T19:00:19.755Z,14.23
2022-12-17T19:05:43.601Z,16.15
2022-12-17T19:11:19.927Z,12.63
2022-12-17T19:16:24.315Z,15.05
2022-12-17T19:21:27.418Z,14.57
2022-12-17T19:26:46.960Z,14.27
2022-12-17T19:31:52.378Z,12.48
2022-12-17T19:36:54.175Z,15.30
2022-12-17T19:41:55.991Z,18.38
2022-12-17T19:46:58.333Z,17.73
2022-12-17T19:52:02.819Z,14.80
2022-12-17T19:57:09.186Z,14.20
2022-12-17T20:02:11.570Z,17.23
2022-12-17T20:07:13.385Z,13.43
2022-12-17T20:12:15.027Z,15.32
2022-12-17T20:17:16.684Z,14.73
2022-12-17T20:22:18.321Z,14.43
2022-12-17T20:27:19.836Z,16.40
2022-12-17T20:32:21.600Z,15.63
2022-12-17T20:37:23.247Z,16.00
2022-12-17T20:42:24.778Z,18.08
2022-12-17T20:47:26.470Z,14.18
2022-12-17T20:52:28.343Z,15.65
2022-12-17T20:57:30.037Z,15.45
2022-12-17T21:02:31.758Z,14.45
2022-12-17T21:18:25.480Z,9.75
2022-12-17T21:23:28.037Z,10.70
2022-12-17T21:28:29.842Z,12.82
2022-12-17T21:33:31.966Z,12.23
2022-12-17T21:38:33.872Z,11.63
2022-12-17T21:43:36.858Z,12.40
2022-12-17T21:48:42.224Z,11.32
2022-12-17T21:53:43.939Z,17.10
2022-12-17T21:58:46.549Z,14.98
2022-12-17T22:03:53.725Z,10.75
2022-12-17T22:14:18.747Z,11.57
2022-12-17T22:19:23.229Z,13.75
2022-12-17T22:24:25.058Z,15.68
2022-12-17T22:29:46.466Z,12.65
2022-12-17T22:35:42.442Z,11.40
2022-12-17T22:44:33.954Z,16.00
2022-12-17T22:45:31.655Z,11.07
2022-12-17T22:50:35.937Z,9.57
2022-12-17T22:55:41.289Z,11.32
2022-12-17T23:00:43.550Z,11.60
2022-12-17T23:05:44.906Z,10.40
2022-12-17T23:10:46.255Z,10.48
2022-12-17T23:15:47.672Z,8.77
2022-12-17T23:20:49.062Z,9.52
2022-12-17T23:25:50.473Z,9.77
2022-12-17T23:30:51.852Z,8.50
2022-12-17T23:36:06.110Z,8.35
2022-12-17T23:41:14.577Z,7.45
2022-12-17T23:46:18.361Z,8.70
2022-12-17T23:51:21.422Z,6.97
2022-12-17T23:56:26.028Z,8.18
